N70CR MWCR-MUHA
Flight info
| Callsign | N70CR |
|---|---|
| Flight time | 0h 44m |
| Altitude | 38000 |
| Route | SRAY2 RIKEL UG877 UCL DUTAN1A |
| Aircraft | C700/M-SBDGHM1RWXY/LB2 |
Departure
| Time | 2026-04-23 16:12 |
|---|---|
| Airport | Owen Roberts International Airport (MWCR) |
Arrival
| Time | 2026-04-23 16:57 |
|---|---|
| Airport | José Martí International Airport (MUHA) |
| Time | Latitude | Longitude | Altitude | Speed | Heading |
|---|---|---|---|---|---|
| 2026-04-23 16:07 | 19.29305 | -81.36299 | 11 ft | 0 kts | 356° |
| 2026-04-23 16:09 | 19.29307 | -81.36296 | 11 ft | 1 kts | 44° |
| 2026-04-23 16:09 | 19.29302 | -81.36290 | 11 ft | 1 kts | 155° |
| 2026-04-23 16:09 | 19.29275 | -81.36305 | 11 ft | 8 kts | 212° |
| 2026-04-23 16:09 | 19.29211 | -81.36304 | 11 ft | 11 kts | 163° |
| 2026-04-23 16:10 | 19.29144 | -81.36333 | 11 ft | 14 kts | 259° |
| 2026-04-23 16:10 | 19.29119 | -81.36440 | 11 ft | 13 kts | 255° |
| 2026-04-23 16:10 | 19.29096 | -81.36544 | 10 ft | 5 kts | 257° |
| 2026-04-23 16:10 | 19.29092 | -81.36560 | 10 ft | 8 kts | 256° |
| 2026-04-23 16:11 | 19.29078 | -81.36658 | 10 ft | 12 kts | 276° |
| 2026-04-23 16:11 | 19.29080 | -81.36749 | 11 ft | 10 kts | 218° |
| 2026-04-23 16:11 | 19.29052 | -81.36720 | 10 ft | 0 kts | 74° |
| 2026-04-23 16:11 | 19.29052 | -81.36719 | 10 ft | 2 kts | 74° |
| 2026-04-23 16:12 | 19.29101 | -81.36515 | 10 ft | 73 kts | 76° |
| 2026-04-23 16:12 | 19.29300 | -81.35648 | 191 ft | 158 kts | 78° |
| 2026-04-23 16:12 | 19.29532 | -81.34374 | 987 ft | 176 kts | 76° |
| 2026-04-23 16:12 | 19.30226 | -81.33297 | 1565 ft | 191 kts | 38° |
| 2026-04-23 16:13 | 19.31535 | -81.32975 | 2077 ft | 208 kts | 2° |
| 2026-04-23 16:13 | 19.34433 | -81.33211 | 2936 ft | 208 kts | 8° |
| 2026-04-23 16:13 | 19.35943 | -81.32884 | 3489 ft | 237 kts | 23° |
| 2026-04-23 16:14 | 19.37499 | -81.32175 | 3999 ft | 254 kts | 28° |
| 2026-04-23 16:14 | 19.39152 | -81.31377 | 4176 ft | 267 kts | 27° |
| 2026-04-23 16:14 | 19.40803 | -81.30570 | 4459 ft | 258 kts | 29° |
| 2026-04-23 16:14 | 19.42539 | -81.29899 | 5712 ft | 262 kts | 20° |
| 2026-04-23 16:15 | 19.44275 | -81.29238 | 7385 ft | 271 kts | 25° |
| 2026-04-23 16:15 | 19.45997 | -81.28388 | 9035 ft | 278 kts | 25° |
| 2026-04-23 16:15 | 19.47813 | -81.27578 | 10504 ft | 291 kts | 21° |
| 2026-04-23 16:15 | 19.49769 | -81.26743 | 11591 ft | 316 kts | 21° |
| 2026-04-23 16:16 | 19.51836 | -81.25825 | 13038 ft | 325 kts | 21° |
| 2026-04-23 16:16 | 19.53918 | -81.24889 | 14443 ft | 335 kts | 20° |
| 2026-04-23 16:16 | 19.56097 | -81.23927 | 15746 ft | 343 kts | 20° |
| 2026-04-23 16:16 | 19.58331 | -81.22947 | 17054 ft | 352 kts | 20° |
| 2026-04-23 16:17 | 19.60619 | -81.21934 | 18348 ft | 360 kts | 20° |
| 2026-04-23 16:17 | 19.62955 | -81.20895 | 19440 ft | 368 kts | 19° |
| 2026-04-23 16:17 | 19.65340 | -81.19838 | 20530 ft | 375 kts | 19° |
| 2026-04-23 16:17 | 19.67777 | -81.18759 | 21590 ft | 384 kts | 19° |
| 2026-04-23 16:18 | 19.70267 | -81.17657 | 22629 ft | 392 kts | 18° |
| 2026-04-23 16:18 | 19.72805 | -81.16531 | 23623 ft | 400 kts | 18° |
| 2026-04-23 16:18 | 19.75363 | -81.15396 | 24444 ft | 407 kts | 18° |
| 2026-04-23 16:18 | 19.77991 | -81.14229 | 25313 ft | 413 kts | 18° |
| 2026-04-23 16:19 | 19.80667 | -81.13041 | 26183 ft | 420 kts | 18° |
| 2026-04-23 16:19 | 19.83384 | -81.11835 | 27040 ft | 427 kts | 18° |
| 2026-04-23 16:19 | 19.86140 | -81.10611 | 27867 ft | 433 kts | 17° |
| 2026-04-23 16:19 | 19.88941 | -81.09366 | 28677 ft | 439 kts | 17° |
| 2026-04-23 16:20 | 19.91779 | -81.08104 | 29481 ft | 446 kts | 17° |
| 2026-04-23 16:20 | 19.94665 | -81.06821 | 30264 ft | 452 kts | 17° |
| 2026-04-23 16:20 | 19.97550 | -81.05537 | 30938 ft | 459 kts | 17° |
| 2026-04-23 16:20 | 20.00512 | -81.04219 | 31550 ft | 465 kts | 17° |
| 2026-04-23 16:21 | 20.03512 | -81.02850 | 32154 ft | 472 kts | 18° |
| 2026-04-23 16:21 | 20.06532 | -81.01414 | 32727 ft | 479 kts | 18° |
| 2026-04-23 16:21 | 20.09598 | -80.99971 | 33289 ft | 484 kts | 17° |
| 2026-04-23 16:21 | 20.12714 | -80.98579 | 33778 ft | 485 kts | 13° |
| 2026-04-23 16:22 | 20.15933 | -80.97611 | 34230 ft | 478 kts | 4° |
| 2026-04-23 16:22 | 20.19188 | -80.97122 | 34659 ft | 468 kts | 356° |
| 2026-04-23 16:22 | 20.22410 | -80.97102 | 35089 ft | 458 kts | 348° |
| 2026-04-23 16:22 | 20.25494 | -80.97515 | 35531 ft | 449 kts | 341° |
| 2026-04-23 16:23 | 20.28485 | -80.98339 | 35980 ft | 440 kts | 333° |
| 2026-04-23 16:23 | 20.31327 | -80.99485 | 36440 ft | 436 kts | 330° |
| 2026-04-23 16:23 | 20.34152 | -81.00654 | 36910 ft | 435 kts | 330° |
| 2026-04-23 16:23 | 20.36979 | -81.01809 | 37392 ft | 435 kts | 330° |
| 2026-04-23 16:24 | 20.39798 | -81.02972 | 37883 ft | 434 kts | 330° |
| 2026-04-23 16:24 | 20.42633 | -81.04153 | 38033 ft | 443 kts | 330° |
| 2026-04-23 16:24 | 20.45547 | -81.05366 | 38037 ft | 456 kts | 330° |
| 2026-04-23 16:24 | 20.48499 | -81.06581 | 38049 ft | 466 kts | 331° |
| 2026-04-23 16:25 | 20.54611 | -81.09099 | 38053 ft | 472 kts | 331° |
| 2026-04-23 16:25 | 20.60735 | -81.11640 | 38051 ft | 472 kts | 331° |
| 2026-04-23 16:26 | 20.66854 | -81.14173 | 38058 ft | 472 kts | 331° |
| 2026-04-23 16:26 | 20.72922 | -81.16692 | 38056 ft | 471 kts | 331° |
| 2026-04-23 16:27 | 20.79020 | -81.19223 | 38056 ft | 470 kts | 330° |
| 2026-04-23 16:27 | 20.85031 | -81.21717 | 38054 ft | 460 kts | 330° |
| 2026-04-23 16:28 | 20.90980 | -81.24197 | 38054 ft | 458 kts | 330° |
| 2026-04-23 16:28 | 20.96918 | -81.26665 | 38050 ft | 457 kts | 330° |
| 2026-04-23 16:29 | 21.02731 | -81.29084 | 38052 ft | 446 kts | 330° |
| 2026-04-23 16:29 | 21.08515 | -81.31504 | 38047 ft | 450 kts | 330° |
| 2026-04-23 16:30 | 21.14379 | -81.33946 | 38052 ft | 453 kts | 330° |
| 2026-04-23 16:30 | 21.20244 | -81.36396 | 38057 ft | 452 kts | 330° |
| 2026-04-23 16:31 | 21.26060 | -81.38828 | 38061 ft | 452 kts | 330° |
| 2026-04-23 16:31 | 21.31908 | -81.41274 | 38059 ft | 451 kts | 330° |
| 2026-04-23 16:32 | 21.37755 | -81.43723 | 38068 ft | 451 kts | 330° |
| 2026-04-23 16:32 | 21.43592 | -81.46169 | 38068 ft | 450 kts | 330° |
| 2026-04-23 16:33 | 21.49380 | -81.48597 | 38075 ft | 449 kts | 330° |
| 2026-04-23 16:33 | 21.52304 | -81.49827 | 37539 ft | 454 kts | 330° |
| 2026-04-23 16:33 | 21.55229 | -81.51052 | 36904 ft | 449 kts | 330° |
| 2026-04-23 16:34 | 21.58122 | -81.52262 | 36287 ft | 444 kts | 330° |
| 2026-04-23 16:34 | 21.60921 | -81.53590 | 35595 ft | 437 kts | 324° |
| 2026-04-23 16:34 | 21.63538 | -81.55220 | 34887 ft | 433 kts | 321° |
| 2026-04-23 16:34 | 21.66118 | -81.56901 | 34211 ft | 435 kts | 321° |
| 2026-04-23 16:35 | 21.68726 | -81.58575 | 33460 ft | 438 kts | 322° |
| 2026-04-23 16:35 | 21.71346 | -81.60258 | 32709 ft | 441 kts | 322° |
| 2026-04-23 16:35 | 21.73950 | -81.61942 | 31983 ft | 443 kts | 322° |
| 2026-04-23 16:35 | 21.76586 | -81.63646 | 31269 ft | 441 kts | 323° |
| 2026-04-23 16:36 | 21.79215 | -81.65343 | 30575 ft | 441 kts | 323° |
| 2026-04-23 16:36 | 21.81858 | -81.67053 | 29847 ft | 444 kts | 323° |
| 2026-04-23 16:36 | 21.84504 | -81.68763 | 29050 ft | 442 kts | 324° |
| 2026-04-23 16:36 | 21.87132 | -81.70461 | 28278 ft | 438 kts | 324° |
| 2026-04-23 16:37 | 21.89730 | -81.72143 | 27523 ft | 434 kts | 324° |
| 2026-04-23 16:37 | 21.92305 | -81.73812 | 26834 ft | 430 kts | 324° |
| 2026-04-23 16:37 | 21.94855 | -81.75464 | 26163 ft | 426 kts | 324° |
| 2026-04-23 16:37 | 21.97352 | -81.77082 | 25515 ft | 423 kts | 324° |
| 2026-04-23 16:38 | 21.99860 | -81.78708 | 24874 ft | 419 kts | 324° |
| 2026-04-23 16:38 | 22.02347 | -81.80321 | 24335 ft | 415 kts | 324° |
| 2026-04-23 16:38 | 22.04816 | -81.81924 | 23850 ft | 414 kts | 324° |
| 2026-04-23 16:38 | 22.07276 | -81.83522 | 23317 ft | 412 kts | 325° |
| 2026-04-23 16:39 | 22.09720 | -81.85108 | 22744 ft | 409 kts | 325° |
| 2026-04-23 16:39 | 22.12147 | -81.86686 | 22179 ft | 406 kts | 325° |
| 2026-04-23 16:39 | 22.14553 | -81.88249 | 21629 ft | 402 kts | 325° |
| 2026-04-23 16:39 | 22.16910 | -81.89783 | 21094 ft | 399 kts | 326° |
| 2026-04-23 16:40 | 22.19281 | -81.91324 | 20563 ft | 396 kts | 326° |
| 2026-04-23 16:40 | 22.21634 | -81.92855 | 20042 ft | 394 kts | 326° |
| 2026-04-23 16:40 | 22.23968 | -81.94376 | 19528 ft | 390 kts | 326° |
| 2026-04-23 16:40 | 22.26286 | -81.95885 | 19023 ft | 388 kts | 327° |
| 2026-04-23 16:41 | 22.28582 | -81.97382 | 18528 ft | 385 kts | 327° |
| 2026-04-23 16:41 | 22.30871 | -81.98873 | 17991 ft | 382 kts | 327° |
| 2026-04-23 16:41 | 22.33139 | -82.00352 | 17423 ft | 380 kts | 327° |
| 2026-04-23 16:41 | 22.35362 | -82.01802 | 16875 ft | 377 kts | 327° |
| 2026-04-23 16:42 | 22.37596 | -82.03260 | 16332 ft | 374 kts | 327° |
| 2026-04-23 16:42 | 22.39812 | -82.04706 | 15796 ft | 371 kts | 327° |
| 2026-04-23 16:42 | 22.42018 | -82.06147 | 15269 ft | 369 kts | 327° |
| 2026-04-23 16:42 | 22.44204 | -82.07574 | 14753 ft | 366 kts | 327° |
| 2026-04-23 16:43 | 22.46376 | -82.08993 | 14224 ft | 363 kts | 327° |
| 2026-04-23 16:43 | 22.48487 | -82.10374 | 13627 ft | 347 kts | 328° |
| 2026-04-23 16:43 | 22.50461 | -82.11664 | 12979 ft | 319 kts | 328° |
| 2026-04-23 16:43 | 22.52309 | -82.12873 | 12342 ft | 303 kts | 327° |
| 2026-04-23 16:44 | 22.54073 | -82.14028 | 11726 ft | 298 kts | 327° |
| 2026-04-23 16:44 | 22.55836 | -82.15184 | 11118 ft | 295 kts | 327° |
| 2026-04-23 16:44 | 22.57583 | -82.16327 | 10519 ft | 292 kts | 328° |
| 2026-04-23 16:44 | 22.59317 | -82.17456 | 9935 ft | 290 kts | 327° |
| 2026-04-23 16:45 | 22.61031 | -82.18592 | 9291 ft | 288 kts | 328° |
| 2026-04-23 16:45 | 22.62743 | -82.19712 | 8661 ft | 287 kts | 328° |
| 2026-04-23 16:45 | 22.64394 | -82.20795 | 8061 ft | 286 kts | 329° |
| 2026-04-23 16:45 | 22.66062 | -82.21951 | 7451 ft | 285 kts | 322° |
| 2026-04-23 16:46 | 22.67399 | -82.23489 | 6855 ft | 285 kts | 306° |
| 2026-04-23 16:46 | 22.68357 | -82.25363 | 6257 ft | 285 kts | 294° |
| 2026-04-23 16:46 | 22.69170 | -82.27319 | 5720 ft | 283 kts | 295° |
| 2026-04-23 16:46 | 22.69999 | -82.29228 | 5353 ft | 277 kts | 296° |
| 2026-04-23 16:47 | 22.70797 | -82.31084 | 5114 ft | 268 kts | 295° |
| 2026-04-23 16:47 | 22.71561 | -82.32893 | 4862 ft | 261 kts | 295° |
| 2026-04-23 16:47 | 22.72316 | -82.34649 | 4598 ft | 254 kts | 296° |
| 2026-04-23 16:47 | 22.73052 | -82.36359 | 4342 ft | 249 kts | 296° |
| 2026-04-23 16:48 | 22.73767 | -82.38050 | 4091 ft | 246 kts | 296° |
| 2026-04-23 16:48 | 22.74484 | -82.39731 | 3790 ft | 247 kts | 296° |
| 2026-04-23 16:48 | 22.75200 | -82.41407 | 3419 ft | 249 kts | 296° |
| 2026-04-23 16:48 | 22.75923 | -82.43106 | 3096 ft | 248 kts | 296° |
| 2026-04-23 16:49 | 22.76403 | -82.44235 | 3068 ft | 239 kts | 296° |
| 2026-04-23 16:49 | 22.77308 | -82.46349 | 3065 ft | 230 kts | 296° |
| 2026-04-23 16:49 | 22.77975 | -82.47911 | 3058 ft | 225 kts | 296° |
| 2026-04-23 16:49 | 22.78608 | -82.49415 | 3066 ft | 214 kts | 296° |
| 2026-04-23 16:50 | 22.79248 | -82.50875 | 2873 ft | 216 kts | 301° |
| 2026-04-23 16:50 | 22.80227 | -82.52096 | 2641 ft | 216 kts | 325° |
| 2026-04-23 16:50 | 22.81440 | -82.53000 | 2416 ft | 214 kts | 329° |
| 2026-04-23 16:50 | 22.82645 | -82.53947 | 2178 ft | 212 kts | 326° |
| 2026-04-23 16:51 | 22.83815 | -82.54875 | 2061 ft | 204 kts | 328° |
| 2026-04-23 16:51 | 22.84964 | -82.55720 | 2057 ft | 197 kts | 334° |
| 2026-04-23 16:51 | 22.86223 | -82.56165 | 2064 ft | 187 kts | 357° |
| 2026-04-23 16:51 | 22.87533 | -82.56142 | 2058 ft | 190 kts | 16° |
| 2026-04-23 16:52 | 22.88708 | -82.55643 | 2062 ft | 176 kts | 34° |
| 2026-04-23 16:52 | 22.89640 | -82.54850 | 2082 ft | 164 kts | 50° |
| 2026-04-23 16:52 | 22.90272 | -82.53913 | 2058 ft | 149 kts | 59° |
| 2026-04-23 16:52 | 22.90871 | -82.53034 | 2056 ft | 140 kts | 55° |
| 2026-04-23 16:53 | 22.91403 | -82.52222 | 2087 ft | 121 kts | 59° |
| 2026-04-23 16:53 | 22.91910 | -82.51425 | 2064 ft | 129 kts | 59° |
| 2026-04-23 16:53 | 22.92429 | -82.50695 | 1947 ft | 118 kts | 58° |
| 2026-04-23 16:53 | 22.92903 | -82.49959 | 1779 ft | 116 kts | 59° |
| 2026-04-23 16:54 | 22.93383 | -82.49264 | 1631 ft | 114 kts | 58° |
| 2026-04-23 16:54 | 22.93865 | -82.48531 | 1484 ft | 117 kts | 57° |
| 2026-04-23 16:54 | 22.94323 | -82.47845 | 1330 ft | 111 kts | 59° |
| 2026-04-23 16:54 | 22.94756 | -82.47163 | 1184 ft | 113 kts | 58° |
| 2026-04-23 16:55 | 22.95227 | -82.46476 | 1036 ft | 112 kts | 58° |
| 2026-04-23 16:55 | 22.95693 | -82.45769 | 924 ft | 120 kts | 58° |
| 2026-04-23 16:55 | 22.96199 | -82.45031 | 780 ft | 125 kts | 58° |
| 2026-04-23 16:55 | 22.96685 | -82.44275 | 629 ft | 120 kts | 60° |
| 2026-04-23 16:56 | 22.97175 | -82.43533 | 460 ft | 122 kts | 58° |
| 2026-04-23 16:56 | 22.97680 | -82.42775 | 311 ft | 126 kts | 58° |
| 2026-04-23 16:56 | 22.98012 | -82.42275 | 236 ft | 117 kts | 58° |
| 2026-04-23 16:56 | 22.98508 | -82.41516 | 215 ft | 63 kts | 56° |
| 2026-04-23 16:57 | 22.98674 | -82.41270 | 213 ft | 25 kts | 53° |
| 2026-04-23 16:57 | 22.98749 | -82.41156 | 213 ft | 18 kts | 54° |
| 2026-04-23 16:57 | 22.98813 | -82.41099 | 211 ft | 14 kts | 20° |
| 2026-04-23 16:57 | 22.98904 | -82.41083 | 210 ft | 12 kts | 9° |
| 2026-04-23 16:58 | 22.98972 | -82.41068 | 212 ft | 12 kts | 12° |
| 2026-04-23 16:58 | 22.99052 | -82.41020 | 211 ft | 15 kts | 55° |
| 2026-04-23 16:58 | 22.99123 | -82.40913 | 212 ft | 19 kts | 55° |
| 2026-04-23 16:58 | 22.99185 | -82.40819 | 215 ft | 15 kts | 54° |
| 2026-04-23 16:59 | 22.99248 | -82.40775 | 210 ft | 13 kts | 338° |
| 2026-04-23 16:59 | 22.99306 | -82.40818 | 211 ft | 10 kts | 326° |
| 2026-04-23 16:59 | 22.99368 | -82.40836 | 215 ft | 10 kts | 32° |
| 2026-04-23 16:59 | 22.99428 | -82.40835 | 211 ft | 11 kts | 323° |
| 2026-04-23 17:00 | 22.99449 | -82.40851 | 211 ft | 2 kts | 324° |
| 2026-04-23 17:00 | 22.99458 | -82.40858 | 211 ft | 0 kts | 324° |